createdAt,value
2023-05-09T00:02:23.649Z,12.98
2023-05-09T00:04:51.613Z,13.02
2023-05-09T00:07:19.578Z,13.04
2023-05-09T00:09:47.473Z,13.04
2023-05-09T00:12:15.744Z,13.04
2023-05-09T00:14:45.424Z,13.06
2023-05-09T00:17:15.764Z,13.06
2023-05-09T00:19:43.664Z,13.06
2023-05-09T00:22:12.981Z,13.04
2023-05-09T00:24:41.554Z,13.02
2023-05-09T00:27:09.941Z,13.00
2023-05-09T00:29:37.912Z,13.01
2023-05-09T00:32:07.324Z,13.02
2023-05-09T00:34:35.465Z,13.08
2023-05-09T00:37:04.232Z,13.10
2023-05-09T00:39:32.050Z,13.09
2023-05-09T00:41:59.973Z,13.09
2023-05-09T00:44:27.944Z,13.09
2023-05-09T00:46:55.914Z,13.09
2023-05-09T00:49:25.163Z,13.10
2023-05-09T00:51:53.798Z,13.08
2023-05-09T00:54:21.711Z,13.11
2023-05-09T00:56:49.634Z,13.07
2023-05-09T00:59:18.055Z,13.07
2023-05-09T01:01:46.924Z,13.07
2023-05-09T01:04:15.280Z,13.04
2023-05-09T01:06:55.855Z,13.07
2023-05-09T01:09:28.815Z,13.08
2023-05-09T01:12:07.906Z,13.06
2023-05-09T01:14:45.785Z,13.02
2023-05-09T01:17:21.465Z,13.03
2023-05-09T01:20:00.057Z,13.00
2023-05-09T01:22:34.997Z,13.01
2023-05-09T01:25:41.705Z,13.01
2023-05-09T01:28:15.422Z,13.00
2023-05-09T01:30:47.832Z,12.98
2023-05-09T01:33:20.326Z,12.97
2023-05-09T01:35:52.558Z,12.96
2023-05-09T01:38:26.891Z,12.94
2023-05-09T01:40:58.411Z,12.94
2023-05-09T01:43:31.091Z,12.90
2023-05-09T01:46:02.053Z,12.90
2023-05-09T01:48:32.648Z,12.89
2023-05-09T01:51:02.748Z,12.89
2023-05-09T01:53:32.341Z,12.87
2023-05-09T01:56:01.666Z,12.84
2023-05-09T01:58:31.008Z,12.85
2023-05-09T02:01:02.045Z,12.85
2023-05-09T02:03:30.508Z,12.87
2023-05-09T02:05:59.371Z,12.87
2023-05-09T02:08:28.463Z,12.85
2023-05-09T02:10:56.589Z,12.87
2023-05-09T02:13:24.934Z,12.87
2023-05-09T02:15:53.679Z,12.86
2023-05-09T02:18:23.038Z,12.86
2023-05-09T02:20:51.002Z,12.87
2023-05-09T02:23:19.087Z,12.84
2023-05-09T02:25:48.043Z,12.87
2023-05-09T02:28:17.453Z,12.86
2023-05-09T02:30:47.072Z,12.87
2023-05-09T02:33:15.871Z,12.86
2023-05-09T02:35:47.777Z,12.87
2023-05-09T02:38:17.520Z,12.91
2023-05-09T02:40:48.420Z,12.86
2023-05-09T02:43:17.391Z,12.87
2023-05-09T02:45:45.852Z,12.89
2023-05-09T02:48:16.981Z,12.94
2023-05-09T02:50:47.029Z,12.93
2023-05-09T02:53:15.009Z,12.95
2023-05-09T02:55:43.132Z,12.94
2023-05-09T02:58:14.674Z,12.93
2023-05-09T03:00:44.589Z,12.93
2023-05-09T03:03:14.730Z,12.95
2023-05-09T03:05:43.370Z,12.93
2023-05-09T03:08:12.846Z,12.90
2023-05-09T03:10:40.890Z,12.90
2023-05-09T03:13:10.353Z,12.92
2023-05-09T03:15:38.387Z,12.89
2023-05-09T03:18:07.887Z,12.90
2023-05-09T03:20:38.948Z,12.88
2023-05-09T03:23:07.368Z,12.87
2023-05-09T03:25:37.008Z,12.86
2023-05-09T03:28:05.232Z,12.84
2023-05-09T03:30:33.245Z,12.85
2023-05-09T03:33:04.997Z,12.83
2023-05-09T03:35:33.267Z,12.84
2023-05-09T03:38:01.905Z,12.82
2023-05-09T03:40:33.536Z,12.85
2023-05-09T03:43:09.452Z,12.79
2023-05-09T03:45:38.453Z,12.79
2023-05-09T03:48:10.027Z,12.79
2023-05-09T03:50:45.859Z,12.77
2023-05-09T03:53:15.070Z,12.78
2023-05-09T03:55:44.686Z,12.76
2023-05-09T03:58:16.229Z,12.74
2023-05-09T04:00:44.945Z,12.75
2023-05-09T04:03:19.780Z,12.77
2023-05-09T04:05:50.248Z,12.77
2023-05-09T04:08:28.542Z,12.80
2023-05-09T04:10:56.914Z,12.77
2023-05-09T04:13:28.257Z,12.83
2023-05-09T04:15:57.910Z,12.81
2023-05-09T04:18:27.301Z,12.83
2023-05-09T04:20:55.570Z,12.83
2023-05-09T04:23:24.570Z,12.83
2023-05-09T04:25:53.986Z,12.84
2023-05-09T04:28:22.116Z,12.87
2023-05-09T04:30:52.296Z,12.88
2023-05-09T04:33:22.223Z,12.92
2023-05-09T04:35:52.531Z,12.93
2023-05-09T04:38:21.326Z,12.95
2023-05-09T04:40:49.677Z,12.99
2023-05-09T04:43:17.832Z,13.01
2023-05-09T04:45:46.288Z,13.03
2023-05-09T04:48:17.365Z,13.05
2023-05-09T04:50:48.421Z,13.04
2023-05-09T04:53:16.548Z,13.07
2023-05-09T04:55:45.867Z,13.07
2023-05-09T04:58:14.335Z,13.09
2023-05-09T05:00:43.071Z,13.08
2023-05-09T05:03:11.693Z,13.12
2023-05-09T05:05:41.640Z,13.14
2023-05-09T05:08:09.901Z,13.15
2023-05-09T05:10:40.443Z,13.16
2023-05-09T05:13:11.628Z,13.16
2023-05-09T05:15:44.104Z,13.19
2023-05-09T05:18:12.272Z,13.19
2023-05-09T05:20:43.525Z,13.21
2023-05-09T05:23:12.154Z,13.19
2023-05-09T05:25:40.401Z,13.20
2023-05-09T05:28:08.504Z,13.21
2023-05-09T05:30:36.785Z,13.23
2023-05-09T05:33:05.270Z,13.27
2023-05-09T05:35:33.504Z,13.30
2023-05-09T05:38:03.009Z,13.36
2023-05-09T05:40:31.365Z,13.39
2023-05-09T05:43:02.861Z,13.44
2023-05-09T05:45:33.210Z,13.46
2023-05-09T05:48:04.541Z,13.48
2023-05-09T05:50:33.997Z,13.55
2023-05-09T05:53:03.530Z,13.55
2023-05-09T05:55:31.729Z,13.59
2023-05-09T05:57:59.853Z,13.61
2023-05-09T06:00:28.511Z,13.59
2023-05-09T06:03:03.351Z,13.67
2023-05-09T06:05:43.237Z,13.72
2023-05-09T06:08:13.659Z,13.67
2023-05-09T06:10:41.789Z,13.70
2023-05-09T06:13:09.973Z,13.71
2023-05-09T06:15:41.079Z,13.73
2023-05-09T06:18:09.381Z,13.75
2023-05-09T06:20:37.418Z,13.78
2023-05-09T06:23:05.462Z,13.82
2023-05-09T06:25:34.836Z,13.83
2023-05-09T06:28:02.814Z,13.87
2023-05-09T06:30:30.992Z,13.94
2023-05-09T06:33:01.181Z,14.04
2023-05-09T06:35:29.247Z,14.15
2023-05-09T06:37:57.180Z,14.27
2023-05-09T06:40:25.212Z,14.42
2023-05-09T06:42:54.852Z,14.50
2023-05-09T06:45:22.893Z,14.57
2023-05-09T06:47:51.151Z,14.65
2023-05-09T06:50:19.174Z,14.77
2023-05-09T06:52:47.149Z,14.88
2023-05-09T06:55:17.417Z,14.92
2023-05-09T06:57:45.685Z,14.92
2023-05-09T07:00:16.856Z,14.99
2023-05-09T07:02:44.842Z,15.05
2023-05-09T07:05:13.134Z,15.06
2023-05-09T07:07:41.447Z,15.12
2023-05-09T07:10:12.238Z,15.18
2023-05-09T07:12:40.750Z,15.24
2023-05-09T07:15:10.062Z,15.31
2023-05-09T07:17:39.608Z,15.39
2023-05-09T07:20:08.661Z,15.35
2023-05-09T07:22:37.767Z,15.43
2023-05-09T07:25:08.550Z,15.47
2023-05-09T07:27:36.826Z,15.47
2023-05-09T07:30:05.122Z,15.50
2023-05-09T07:32:33.418Z,15.47
2023-05-09T07:35:06.145Z,15.52
2023-05-09T07:37:34.827Z,15.55
2023-05-09T07:40:03.497Z,15.55
2023-05-09T07:42:32.704Z,15.54
2023-05-09T07:45:00.780Z,15.56
2023-05-09T07:47:28.892Z,15.67
2023-05-09T07:49:57.059Z,15.69
2023-05-09T07:52:26.608Z,15.73
2023-05-09T07:54:55.332Z,15.78
2023-05-09T07:57:23.836Z,15.78
2023-05-09T07:59:51.838Z,15.83
2023-05-09T08:02:20.060Z,15.86
2023-05-09T08:04:49.240Z,15.79
2023-05-09T08:07:17.452Z,15.87
2023-05-09T08:09:46.939Z,15.85
2023-05-09T08:12:14.869Z,15.91
2023-05-09T08:14:42.975Z,15.87
2023-05-09T08:17:11.453Z,15.97
2023-05-09T08:19:39.551Z,15.98
2023-05-09T08:22:07.633Z,16.10
2023-05-09T08:24:35.660Z,16.19
2023-05-09T08:27:05.370Z,16.24
2023-05-09T08:29:33.552Z,16.26
2023-05-09T08:32:01.661Z,16.22
2023-05-09T08:34:31.372Z,16.19
2023-05-09T08:36:59.507Z,16.25
2023-05-09T08:39:27.580Z,16.40
2023-05-09T08:41:59.950Z,16.44
2023-05-09T08:44:31.625Z,16.49
2023-05-09T08:47:02.550Z,16.44
2023-05-09T08:49:31.287Z,16.47
2023-05-09T08:52:00.017Z,16.42
2023-05-09T08:54:28.886Z,16.46
2023-05-09T08:56:57.858Z,16.57
2023-05-09T08:59:27.227Z,16.77
2023-05-09T09:01:57.182Z,16.85
2023-05-09T09:07:11.017Z,16.92
2023-05-09T09:09:45.632Z,17.05
2023-05-09T09:12:16.524Z,17.10
2023-05-09T09:14:54.046Z,17.10
2023-05-09T09:17:28.433Z,17.15
2023-05-09T09:20:00.316Z,17.22
2023-05-09T09:22:34.176Z,17.18
2023-05-09T09:25:02.655Z,17.26
2023-05-09T09:27:31.136Z,17.23
2023-05-09T09:30:08.201Z,17.30
2023-05-09T09:32:38.134Z,17.29
2023-05-09T09:35:08.012Z,17.32
2023-05-09T09:37:36.863Z,17.33
2023-05-09T09:40:05.275Z,17.36
2023-05-09T09:42:43.010Z,17.24
2023-05-09T09:45:13.523Z,17.16
2023-05-09T09:47:44.891Z,17.18
2023-05-09T09:50:15.108Z,17.21
2023-05-09T09:52:45.263Z,17.31
2023-05-09T09:55:14.195Z,17.40
2023-05-09T09:57:45.613Z,17.42
2023-05-09T10:00:16.023Z,17.64
2023-05-09T10:02:50.451Z,17.69
2023-05-09T10:05:25.522Z,17.63
2023-05-09T10:07:59.045Z,17.72
2023-05-09T10:10:28.671Z,17.70
2023-05-09T10:13:05.157Z,17.77
2023-05-09T10:15:45.003Z,17.88
2023-05-09T10:18:24.300Z,17.96
2023-05-09T10:21:01.211Z,18.06
2023-05-09T10:23:31.201Z,18.18
2023-05-09T10:26:06.124Z,18.21
2023-05-09T10:28:37.198Z,18.26
2023-05-09T10:31:13.989Z,18.21
2023-05-09T10:33:48.480Z,18.35
2023-05-09T10:36:18.876Z,18.44
2023-05-09T10:38:48.433Z,18.44
2023-05-09T10:41:18.724Z,18.58
2023-05-09T10:43:47.511Z,18.69
2023-05-09T10:46:16.455Z,18.69
2023-05-09T10:48:46.543Z,18.82
2023-05-09T10:51:14.919Z,18.87
2023-05-09T10:53:44.635Z,18.82
2023-05-09T10:56:24.775Z,18.98
2023-05-09T10:58:52.865Z,18.93
2023-05-09T11:01:32.955Z,18.97
2023-05-09T11:04:04.039Z,19.10
2023-05-09T11:06:49.463Z,19.11
2023-05-09T11:09:29.209Z,19.04
2023-05-09T11:11:58.882Z,19.10
2023-05-09T11:14:31.355Z,19.11
2023-05-09T11:17:01.036Z,19.13
2023-05-09T11:19:39.499Z,19.16
2023-05-09T11:22:15.567Z,19.20
2023-05-09T11:24:47.364Z,19.25
2023-05-09T11:27:16.706Z,19.36
2023-05-09T11:29:45.587Z,19.38
2023-05-09T11:32:16.374Z,19.51
2023-05-09T11:34:46.822Z,19.51
2023-05-09T11:37:18.008Z,19.50
2023-05-09T11:40:00.460Z,19.55
2023-05-09T11:42:35.150Z,19.64
2023-05-09T11:45:07.682Z,19.70
2023-05-09T11:47:38.134Z,19.74
2023-05-09T11:50:09.983Z,19.69
2023-05-09T11:52:39.377Z,19.77
2023-05-09T11:55:10.918Z,19.75
2023-05-09T11:57:42.305Z,19.76
2023-05-09T12:00:11.986Z,19.75
2023-05-09T12:02:40.907Z,19.78
2023-05-09T12:05:12.668Z,19.75
2023-05-09T12:07:45.116Z,19.75
2023-05-09T12:10:15.860Z,19.63
2023-05-09T12:12:56.609Z,19.66
2023-05-09T12:15:46.809Z,19.71
2023-05-09T12:18:37.459Z,19.68
2023-05-09T12:21:14.766Z,19.70
2023-05-09T12:23:53.515Z,19.66
2023-05-09T12:26:29.507Z,19.65
2023-05-09T12:29:02.639Z,19.61
2023-05-09T12:31:33.562Z,19.54
2023-05-09T12:34:02.749Z,19.59
2023-05-09T12:36:36.657Z,19.53
2023-05-09T12:39:10.546Z,19.54
2023-05-09T12:41:53.878Z,19.58
2023-05-09T12:45:05.645Z,19.58
2023-05-09T12:47:48.694Z,19.55
2023-05-09T12:50:46.433Z,19.62
2023-05-09T12:53:48.465Z,19.72
2023-05-09T12:56:22.998Z,19.75
2023-05-09T12:59:02.461Z,19.79
2023-05-09T13:01:40.195Z,19.85
2023-05-09T13:04:53.318Z,19.92
2023-05-09T13:07:58.025Z,19.99
2023-05-09T13:10:47.019Z,20.06
2023-05-09T13:13:31.513Z,20.04
2023-05-09T13:16:06.484Z,20.00
2023-05-09T13:18:35.396Z,20.00
2023-05-09T13:21:03.496Z,20.02
2023-05-09T13:23:31.681Z,19.97
2023-05-09T13:26:00.816Z,20.01
2023-05-09T13:28:28.681Z,20.06
2023-05-09T13:30:56.609Z,20.07
2023-05-09T13:33:26.255Z,20.03
2023-05-09T13:35:54.602Z,19.98
2023-05-09T13:38:23.659Z,19.98
2023-05-09T13:40:51.541Z,20.01
2023-05-09T13:43:20.818Z,20.02
2023-05-09T13:45:48.756Z,20.04
2023-05-09T13:48:16.751Z,20.06
2023-05-09T13:50:45.365Z,20.10
2023-05-09T13:53:13.327Z,20.05
2023-05-09T13:55:41.165Z,20.06
2023-05-09T13:58:08.979Z,20.00
2023-05-09T14:00:38.367Z,20.01
2023-05-09T14:03:06.357Z,19.98
2023-05-09T14:05:34.859Z,19.97
2023-05-09T14:08:03.545Z,19.93
2023-05-09T14:10:31.365Z,20.03
2023-05-09T14:12:59.469Z,20.22
2023-05-09T14:15:27.457Z,20.35
2023-05-09T14:17:57.090Z,20.38
2023-05-09T14:20:25.197Z,20.42
2023-05-09T14:22:55.068Z,20.44
2023-05-09T14:25:23.636Z,20.39
2023-05-09T14:27:51.517Z,20.37
2023-05-09T14:30:19.374Z,20.30
2023-05-09T14:32:47.182Z,20.33
2023-05-09T14:35:16.788Z,20.35
2023-05-09T14:37:44.758Z,20.39
2023-05-09T14:40:13.533Z,20.33
2023-05-09T14:42:41.622Z,20.40
2023-05-09T14:45:12.698Z,20.35
2023-05-09T14:47:41.241Z,20.39
2023-05-09T14:50:15.883Z,20.38
2023-05-09T14:52:45.574Z,20.37
2023-05-09T14:55:13.526Z,20.26
2023-05-09T14:57:41.405Z,20.25
2023-05-09T15:00:20.360Z,20.18
2023-05-09T15:02:50.834Z,20.12
2023-05-09T15:05:19.051Z,20.06
2023-05-09T15:07:48.316Z,20.05
2023-05-09T15:10:16.233Z,19.93
2023-05-09T15:12:46.714Z,19.82
2023-05-09T15:15:16.519Z,19.80
2023-05-09T15:17:46.273Z,19.69
2023-05-09T15:20:16.350Z,19.75
2023-05-09T15:22:44.623Z,19.61
2023-05-09T15:25:14.050Z,19.61
2023-05-09T15:27:41.948Z,19.60
2023-05-09T15:30:11.108Z,19.57
2023-05-09T15:32:41.529Z,19.55
2023-05-09T15:35:09.952Z,19.49
2023-05-09T15:37:37.912Z,19.48
2023-05-09T15:40:07.503Z,19.28
2023-05-09T15:42:37.140Z,19.35
2023-05-09T15:45:05.567Z,19.33
2023-05-09T15:47:33.614Z,19.36
2023-05-09T15:50:01.499Z,19.39
2023-05-09T15:52:29.380Z,19.36
2023-05-09T15:54:57.375Z,19.32
2023-05-09T15:57:25.967Z,19.26
2023-05-09T15:59:55.955Z,19.25
2023-05-09T16:02:24.066Z,19.12
2023-05-09T16:04:52.400Z,19.19
2023-05-09T16:07:20.741Z,19.17
2023-05-09T16:09:48.975Z,19.17
2023-05-09T16:12:16.949Z,19.15
2023-05-09T16:14:45.386Z,19.12
2023-05-09T16:17:14.579Z,19.09
2023-05-09T16:19:42.442Z,19.07
2023-05-09T16:22:10.379Z,19.06
2023-05-09T16:24:38.517Z,18.99
2023-05-09T16:27:06.469Z,18.97
2023-05-09T16:29:34.350Z,18.94
2023-05-09T16:32:02.361Z,18.90
2023-05-09T16:34:31.775Z,18.88
2023-05-09T16:36:59.647Z,18.86
2023-05-09T16:39:28.023Z,18.84
2023-05-09T16:41:56.315Z,18.80
2023-05-09T16:44:25.756Z,18.78
2023-05-09T16:46:53.716Z,18.70
2023-05-09T16:49:22.103Z,18.53
2023-05-09T16:51:51.257Z,18.39
2023-05-09T16:54:19.152Z,18.30
2023-05-09T16:56:47.854Z,18.13
2023-05-09T16:59:17.402Z,18.01
2023-05-09T17:01:46.427Z,17.94
2023-05-09T17:04:14.592Z,17.85
2023-05-09T17:06:42.674Z,17.69
2023-05-09T17:09:13.082Z,17.63
2023-05-09T17:11:41.040Z,17.55
2023-05-09T17:14:08.991Z,17.43
2023-05-09T17:16:38.275Z,17.22
2023-05-09T17:19:06.464Z,17.18
2023-05-09T17:21:34.360Z,17.07
2023-05-09T17:24:03.117Z,16.99
2023-05-09T17:26:32.300Z,16.95
2023-05-09T17:29:00.184Z,16.92
2023-05-09T17:31:28.176Z,16.85
2023-05-09T17:33:56.053Z,16.79
2023-05-09T17:36:23.944Z,16.74
2023-05-09T17:38:52.255Z,16.75
2023-05-09T17:41:20.150Z,16.71
2023-05-09T17:43:51.831Z,16.63
2023-05-09T17:46:23.060Z,16.53
2023-05-09T17:48:51.904Z,16.46
2023-05-09T17:51:26.198Z,16.46
2023-05-09T17:53:54.221Z,16.33
2023-05-09T17:56:25.296Z,16.26
2023-05-09T17:58:54.633Z,16.19
2023-05-09T18:01:24.965Z,16.14
2023-05-09T18:03:52.970Z,16.17
2023-05-09T18:06:24.098Z,16.05
2023-05-09T18:08:51.924Z,16.02
2023-05-09T18:11:19.728Z,16.03
2023-05-09T18:13:48.258Z,15.90
2023-05-09T18:16:17.539Z,15.91
2023-05-09T18:18:45.893Z,15.83
2023-05-09T18:21:13.946Z,15.80
2023-05-09T18:23:41.809Z,15.81
2023-05-09T18:26:09.754Z,15.80
2023-05-09T18:28:39.697Z,15.75
2023-05-09T18:31:10.120Z,15.73
2023-05-09T18:33:40.024Z,15.66
2023-05-09T18:36:10.026Z,15.63
2023-05-09T18:38:43.234Z,15.58
2023-05-09T18:41:12.225Z,15.66
2023-05-09T18:43:46.016Z,15.55
2023-05-09T18:46:17.215Z,15.51
2023-05-09T18:48:47.985Z,15.50
2023-05-09T18:51:16.233Z,15.53
2023-05-09T18:53:44.144Z,15.49
2023-05-09T18:56:12.024Z,15.46
2023-05-09T18:58:39.876Z,15.39
2023-05-09T19:01:11.325Z,15.37
2023-05-09T19:03:43.584Z,15.34
2023-05-09T19:06:13.768Z,15.36
2023-05-09T19:08:41.978Z,15.31
2023-05-09T19:11:09.955Z,15.27
2023-05-09T19:13:40.037Z,15.25
2023-05-09T19:16:09.460Z,15.21
2023-05-09T19:18:37.309Z,15.15
2023-05-09T19:21:05.377Z,15.18
2023-05-09T19:23:34.835Z,15.16
2023-05-09T19:26:03.278Z,15.14
2023-05-09T19:28:31.075Z,15.14
2023-05-09T19:30:59.031Z,15.09
2023-05-09T19:33:26.895Z,15.09
2023-05-09T19:35:54.745Z,15.07
2023-05-09T19:38:22.673Z,15.08
2023-05-09T19:40:51.909Z,15.01
2023-05-09T19:43:19.709Z,14.93
2023-05-09T19:45:47.563Z,14.96
2023-05-09T19:48:15.847Z,14.97
2023-05-09T19:50:44.286Z,14.94
2023-05-09T19:53:12.183Z,14.95
2023-05-09T19:55:40.159Z,14.91
2023-05-09T19:58:09.390Z,14.87
2023-05-09T20:00:38.838Z,14.90
2023-05-09T20:03:06.769Z,14.80
2023-05-09T20:05:34.884Z,14.85
2023-05-09T20:08:02.769Z,14.79
2023-05-09T20:10:30.853Z,14.74
2023-05-09T20:12:59.289Z,14.78
2023-05-09T20:15:28.568Z,14.73
2023-05-09T20:17:56.716Z,14.75
2023-05-09T20:20:24.478Z,14.72
2023-05-09T20:22:52.438Z,14.67
2023-05-09T20:25:20.347Z,14.68
2023-05-09T20:27:48.227Z,14.66
2023-05-09T20:30:17.366Z,14.64
2023-05-09T20:32:46.671Z,14.62
2023-05-09T20:35:14.486Z,14.61
2023-05-09T20:37:42.388Z,14.58
2023-05-09T20:40:10.999Z,14.56
2023-05-09T20:42:39.217Z,14.51
2023-05-09T20:45:08.277Z,14.60
2023-05-09T20:47:36.244Z,14.56
2023-05-09T20:50:06.309Z,14.46
2023-05-09T20:52:34.118Z,14.47
2023-05-09T20:55:02.001Z,14.47
2023-05-09T20:57:30.119Z,14.40
2023-05-09T20:59:57.969Z,14.40
2023-05-09T21:02:26.055Z,14.41
2023-05-09T21:04:53.890Z,14.37
2023-05-09T21:07:23.087Z,14.34
2023-05-09T21:09:51.441Z,14.32
2023-05-09T21:12:19.284Z,14.29
2023-05-09T21:14:47.137Z,14.32
2023-05-09T21:17:15.223Z,14.27
2023-05-09T21:19:43.137Z,14.30
2023-05-09T21:22:11.060Z,14.25
2023-05-09T21:24:40.287Z,14.21
2023-05-09T21:27:08.120Z,14.18
2023-05-09T21:29:35.936Z,14.23
2023-05-09T21:32:03.765Z,14.18
2023-05-09T21:34:31.625Z,14.20
2023-05-09T21:36:59.488Z,14.19
2023-05-09T21:39:27.350Z,14.18
2023-05-09T21:41:56.877Z,14.13
2023-05-09T21:44:25.141Z,14.12
2023-05-09T21:46:52.965Z,14.13
2023-05-09T21:49:21.810Z,14.11
2023-05-09T21:51:49.838Z,14.11
2023-05-09T21:54:17.737Z,14.11
2023-05-09T21:56:45.550Z,14.06
2023-05-09T21:59:14.970Z,14.05
2023-05-09T22:01:45.116Z,14.10
2023-05-09T22:04:13.665Z,14.08
2023-05-09T22:06:42.513Z,14.06
2023-05-09T22:09:11.013Z,14.06
2023-05-09T22:11:38.844Z,14.04
2023-05-09T22:14:07.331Z,14.05
2023-05-09T22:16:36.785Z,14.08
2023-05-09T22:19:04.895Z,14.07
2023-05-09T22:21:32.817Z,14.05
2023-05-09T22:24:00.591Z,13.98
2023-05-09T22:26:28.478Z,14.01
2023-05-09T22:28:57.097Z,13.94
2023-05-09T22:31:25.067Z,14.03
2023-05-09T22:33:54.241Z,14.01
2023-05-09T22:36:22.467Z,14.01
2023-05-09T22:38:50.401Z,13.96
2023-05-09T22:41:18.268Z,13.98
2023-05-09T22:43:46.266Z,13.93
2023-05-09T22:46:14.069Z,13.92
2023-05-09T22:48:41.921Z,13.91
2023-05-09T22:51:11.351Z,13.98
2023-05-09T22:53:39.193Z,13.91
2023-05-09T22:56:07.546Z,13.92
2023-05-09T22:58:35.384Z,13.90
2023-05-09T23:01:03.213Z,13.92
2023-05-09T23:20:58.466Z,13.75
2023-05-09T23:23:26.316Z,13.71
2023-05-09T23:25:54.366Z,13.72
2023-05-09T23:28:25.013Z,13.70
2023-05-09T23:30:52.826Z,13.67
2023-05-09T23:33:20.753Z,13.68
2023-05-09T23:35:48.686Z,13.66
2023-05-09T23:38:18.109Z,13.62
2023-05-09T23:40:45.966Z,13.64
2023-05-09T23:43:14.286Z,13.64
2023-05-09T23:45:42.645Z,13.61
2023-05-09T23:48:10.398Z,13.65
2023-05-09T23:50:38.151Z,13.61
2023-05-09T23:53:06.534Z,13.58
2023-05-09T23:55:35.605Z,13.53
2023-05-09T23:58:03.656Z,13.44
